sensor_id;sensor_type;location;lat;lon;timestamp;pressure;altitude;pressure_sealevel;temperature;humidity
10946;BME280;5525;42.648;23.368;2023-03-02T00:01:18;95021.50;;;5.74;100.00
10946;BME280;5525;42.648;23.368;2023-03-02T00:03:47;95013.38;;;5.84;100.00
10946;BME280;5525;42.648;23.368;2023-03-02T00:06:14;95013.41;;;5.79;100.00
10946;BME280;5525;42.648;23.368;2023-03-02T00:08:41;95013.63;;;5.83;100.00
10946;BME280;5525;42.648;23.368;2023-03-02T00:11:08;95024.31;;;5.88;100.00
10946;BME280;5525;42.648;23.368;2023-03-02T00:13:36;95024.41;;;6.01;100.00
10946;BME280;5525;42.648;23.368;2023-03-02T00:16:04;95024.94;;;6.03;100.00
10946;BME280;5525;42.648;23.368;2023-03-02T00:18:31;95010.56;;;5.94;100.00
10946;BME280;5525;42.648;23.368;2023-03-02T00:20:59;95011.09;;;5.96;100.00
10946;BME280;5525;42.648;23.368;2023-03-02T00:23:26;95009.00;;;5.93;100.00
10946;BME280;5525;42.648;23.368;2023-03-02T00:25:53;95009.59;;;6.09;100.00
10946;BME280;5525;42.648;23.368;2023-03-02T00:28:19;95005.38;;;6.03;100.00
10946;BME280;5525;42.648;23.368;2023-03-02T00:30:46;95007.75;;;6.04;100.00
10946;BME280;5525;42.648;23.368;2023-03-02T00:33:13;95010.72;;;6.03;100.00
10946;BME280;5525;42.648;23.368;2023-03-02T00:35:40;94993.88;;;6.02;100.00
10946;BME280;5525;42.648;23.368;2023-03-02T00:38:08;94988.06;;;6.14;100.00
10946;BME280;5525;42.648;23.368;2023-03-02T00:40:35;94990.03;;;6.08;100.00
10946;BME280;5525;42.648;23.368;2023-03-02T00:43:02;94985.59;;;5.99;100.00
10946;BME280;5525;42.648;23.368;2023-03-02T00:45:29;94986.41;;;5.99;100.00
10946;BME280;5525;42.648;23.368;2023-03-02T00:47:55;94982.63;;;6.00;100.00
10946;BME280;5525;42.648;23.368;2023-03-02T00:50:22;94976.97;;;5.78;100.00
10946;BME280;5525;42.648;23.368;2023-03-02T00:52:49;94965.81;;;5.71;100.00
10946;BME280;5525;42.648;23.368;2023-03-02T00:55:17;94976.94;;;5.83;100.00
10946;BME280;5525;42.648;23.368;2023-03-02T00:57:44;94967.84;;;5.84;100.00
10946;BME280;5525;42.648;23.368;2023-03-02T01:00:19;94957.72;;;5.76;100.00
10946;BME280;5525;42.648;23.368;2023-03-02T01:02:46;94963.34;;;5.75;100.00
10946;BME280;5525;42.648;23.368;2023-03-02T01:05:13;94958.50;;;5.77;100.00
10946;BME280;5525;42.648;23.368;2023-03-02T01:07:40;94970.59;;;5.74;100.00
10946;BME280;5525;42.648;23.368;2023-03-02T01:10:08;94963.13;;;5.71;100.00
10946;BME280;5525;42.648;23.368;2023-03-02T01:12:36;94957.03;;;5.66;100.00
10946;BME280;5525;42.648;23.368;2023-03-02T01:15:05;94944.72;;;5.65;100.00
10946;BME280;5525;42.648;23.368;2023-03-02T01:17:32;94944.75;;;5.60;100.00
10946;BME280;5525;42.648;23.368;2023-03-02T01:19:59;94941.88;;;5.56;100.00
10946;BME280;5525;42.648;23.368;2023-03-02T01:22:25;94948.81;;;5.57;100.00
10946;BME280;5525;42.648;23.368;2023-03-02T01:24:52;94957.38;;;5.59;100.00
10946;BME280;5525;42.648;23.368;2023-03-02T01:27:19;94948.78;;;5.62;100.00
10946;BME280;5525;42.648;23.368;2023-03-02T01:29:47;94956.47;;;5.69;100.00
10946;BME280;5525;42.648;23.368;2023-03-02T01:32:15;94950.97;;;5.55;100.00
10946;BME280;5525;42.648;23.368;2023-03-02T01:34:41;94950.41;;;5.58;100.00
10946;BME280;5525;42.648;23.368;2023-03-02T01:37:08;94950.41;;;5.58;100.00
10946;BME280;5525;42.648;23.368;2023-03-02T01:39:35;94946.09;;;5.62;100.00
10946;BME280;5525;42.648;23.368;2023-03-02T01:42:01;94956.66;;;5.72;100.00
10946;BME280;5525;42.648;23.368;2023-03-02T01:44:40;94951.84;;;5.74;100.00
10946;BME280;5525;42.648;23.368;2023-03-02T01:47:15;94934.75;;;5.70;100.00
10946;BME280;5525;42.648;23.368;2023-03-02T01:49:47;94927.34;;;5.62;100.00
10946;BME280;5525;42.648;23.368;2023-03-02T01:52:16;94933.44;;;5.68;100.00
10946;BME280;5525;42.648;23.368;2023-03-02T01:54:44;94935.31;;;5.67;100.00
10946;BME280;5525;42.648;23.368;2023-03-02T01:57:15;94940.97;;;5.66;100.00
10946;BME280;5525;42.648;23.368;2023-03-02T01:59:45;94937.91;;;5.72;100.00
10946;BME280;5525;42.648;23.368;2023-03-02T02:02:14;94930.69;;;5.73;100.00
10946;BME280;5525;42.648;23.368;2023-03-02T02:04:42;94921.94;;;5.67;100.00
10946;BME280;5525;42.648;23.368;2023-03-02T02:07:10;94932.41;;;5.64;100.00
10946;BME280;5525;42.648;23.368;2023-03-02T02:09:40;94930.06;;;5.57;100.00
10946;BME280;5525;42.648;23.368;2023-03-02T02:12:13;94930.59;;;5.59;100.00
10946;BME280;5525;42.648;23.368;2023-03-02T02:14:40;94936.28;;;5.53;100.00
10946;BME280;5525;42.648;23.368;2023-03-02T02:17:07;94944.09;;;5.49;100.00
10946;BME280;5525;42.648;23.368;2023-03-02T02:19:46;94935.84;;;5.46;100.00
10946;BME280;5525;42.648;23.368;2023-03-02T02:22:24;94945.75;;;5.45;100.00
10946;BME280;5525;42.648;23.368;2023-03-02T02:24:56;94939.88;;;5.43;100.00
10946;BME280;5525;42.648;23.368;2023-03-02T02:27:26;94936.41;;;5.43;100.00
10946;BME280;5525;42.648;23.368;2023-03-02T02:29:55;94938.56;;;5.41;100.00
10946;BME280;5525;42.648;23.368;2023-03-02T02:32:24;94937.53;;;5.37;100.00
10946;BME280;5525;42.648;23.368;2023-03-02T02:34:55;94939.13;;;5.38;100.00
10946;BME280;5525;42.648;23.368;2023-03-02T02:37:26;94933.84;;;5.33;100.00
10946;BME280;5525;42.648;23.368;2023-03-02T02:39:54;94934.84;;;5.37;100.00
10946;BME280;5525;42.648;23.368;2023-03-02T02:42:26;94935.09;;;5.40;100.00
10946;BME280;5525;42.648;23.368;2023-03-02T02:44:58;94936.69;;;5.41;100.00
10946;BME280;5525;42.648;23.368;2023-03-02T02:47:25;94931.84;;;5.43;100.00
10946;BME280;5525;42.648;23.368;2023-03-02T02:49:53;94936.69;;;5.41;100.00
10946;BME280;5525;42.648;23.368;2023-03-02T02:52:22;94931.09;;;5.38;100.00
10946;BME280;5525;42.648;23.368;2023-03-02T02:54:52;94914.38;;;5.27;100.00
10946;BME280;5525;42.648;23.368;2023-03-02T02:57:21;94920.50;;;5.28;100.00
10946;BME280;5525;42.648;23.368;2023-03-02T02:59:53;94917.31;;;5.26;100.00
10946;BME280;5525;42.648;23.368;2023-03-02T03:02:23;94926.22;;;5.21;100.00
10946;BME280;5525;42.648;23.368;2023-03-02T03:04:51;94922.41;;;5.27;100.00
10946;BME280;5525;42.648;23.368;2023-03-02T03:07:27;94921.59;;;5.27;100.00
10946;BME280;5525;42.648;23.368;2023-03-02T03:09:56;94911.88;;;5.31;100.00
10946;BME280;5525;42.648;23.368;2023-03-02T03:12:28;94913.44;;;5.37;100.00
10946;BME280;5525;42.648;23.368;2023-03-02T03:14:59;94918.44;;;5.43;100.00
10946;BME280;5525;42.648;23.368;2023-03-02T03:17:26;94916.56;;;5.44;100.00
10946;BME280;5525;42.648;23.368;2023-03-02T03:19:53;94914.28;;;5.32;100.00
10946;BME280;5525;42.648;23.368;2023-03-02T03:22:31;94917.44;;;5.39;100.00
10946;BME280;5525;42.648;23.368;2023-03-02T03:24:58;94911.13;;;5.30;100.00
10946;BME280;5525;42.648;23.368;2023-03-02T03:27:25;94921.53;;;5.32;100.00
10946;BME280;5525;42.648;23.368;2023-03-02T03:29:52;94916.88;;;5.42;100.00
10946;BME280;5525;42.648;23.368;2023-03-02T03:32:20;94915.56;;;5.40;100.00
10946;BME280;5525;42.648;23.368;2023-03-02T03:34:47;94916.09;;;5.37;100.00
10946;BME280;5525;42.648;23.368;2023-03-02T03:37:16;94921.47;;;5.37;100.00
10946;BME280;5525;42.648;23.368;2023-03-02T03:39:43;94921.31;;;5.28;100.00
10946;BME280;5525;42.648;23.368;2023-03-02T03:42:10;94925.63;;;5.24;100.00
10946;BME280;5525;42.648;23.368;2023-03-02T03:44:37;94922.47;;;5.17;100.00
10946;BME280;5525;42.648;23.368;2023-03-02T03:47:04;94926.22;;;5.21;100.00
10946;BME280;5525;42.648;23.368;2023-03-02T03:49:32;94923.81;;;5.19;100.00
10946;BME280;5525;42.648;23.368;2023-03-02T03:51:59;94923.84;;;5.14;100.00
10946;BME280;5525;42.648;23.368;2023-03-02T03:54:25;94925.72;;;5.14;100.00
10946;BME280;5525;42.648;23.368;2023-03-02T03:56:52;94922.00;;;5.15;100.00
10946;BME280;5525;42.648;23.368;2023-03-02T03:59:21;94927.34;;;5.15;100.00
10946;BME280;5525;42.648;23.368;2023-03-02T04:01:50;94924.84;;;5.23;100.00
10946;BME280;5525;42.648;23.368;2023-03-02T04:04:19;94930.19;;;5.23;100.00
10946;BME280;5525;42.648;23.368;2023-03-02T04:06:48;94926.25;;;5.16;100.00
10946;BME280;5525;42.648;23.368;2023-03-02T04:09:15;94923.56;;;5.16;100.00
10946;BME280;5525;42.648;23.368;2023-03-02T04:11:45;94912.25;;;5.24;100.00
10946;BME280;5525;42.648;23.368;2023-03-02T04:14:13;94918.63;;;5.28;100.00
10946;BME280;5525;42.648;23.368;2023-03-02T04:16:41;94923.25;;;5.22;100.00
10946;BME280;5525;42.648;23.368;2023-03-02T04:19:08;94916.84;;;5.18;100.00
10946;BME280;5525;42.648;23.368;2023-03-02T04:21:36;94920.84;;;5.21;100.00
10946;BME280;5525;42.648;23.368;2023-03-02T04:24:05;94920.50;;;5.28;100.00
10946;BME280;5525;42.648;23.368;2023-03-02T04:26:32;94915.78;;;5.19;100.00
10946;BME280;5525;42.648;23.368;2023-03-02T04:28:59;94914.97;;;5.19;100.00
10946;BME280;5525;42.648;23.368;2023-03-02T04:31:26;94904.03;;;5.15;100.00
10946;BME280;5525;42.648;23.368;2023-03-02T04:33:52;94908.91;;;5.13;100.00
10946;BME280;5525;42.648;23.368;2023-03-02T04:36:25;94912.19;;;5.05;100.00
10946;BME280;5525;42.648;23.368;2023-03-02T04:38:52;94914.34;;;5.03;100.00
10946;BME280;5525;42.648;23.368;2023-03-02T04:41:20;94925.03;;;5.03;100.00
10946;BME280;5525;42.648;23.368;2023-03-02T04:43:48;94921.91;;;4.96;100.00
10946;BME280;5525;42.648;23.368;2023-03-02T04:46:19;94925.03;;;5.03;100.00
10946;BME280;5525;42.648;23.368;2023-03-02T04:48:47;94925.28;;;5.07;100.00
10946;BME280;5525;42.648;23.368;2023-03-02T04:51:16;94928.97;;;5.11;100.00
10946;BME280;5525;42.648;23.368;2023-03-02T04:53:48;94924.50;;;5.01;100.00
10946;BME280;5525;42.648;23.368;2023-03-02T04:56:15;94929.59;;;5.03;100.00
10946;BME280;5525;42.648;23.368;2023-03-02T04:58:43;94932.22;;;5.08;100.00
10946;BME280;5525;42.648;23.368;2023-03-02T05:01:18;94933.63;;;5.00;100.00
10946;BME280;5525;42.648;23.368;2023-03-02T05:03:46;94936.53;;;5.04;100.00
10946;BME280;5525;42.648;23.368;2023-03-02T05:06:13;94926.06;;;5.07;100.00
10946;BME280;5525;42.648;23.368;2023-03-02T05:08:40;94927.44;;;5.05;100.00
10946;BME280;5525;42.648;23.368;2023-03-02T05:11:16;94931.69;;;5.06;100.00
10946;BME280;5525;42.648;23.368;2023-03-02T05:13:53;94940.25;;;5.08;100.00
10946;BME280;5525;42.648;23.368;2023-03-02T05:16:21;94941.34;;;5.07;100.00
10946;BME280;5525;42.648;23.368;2023-03-02T05:18:48;94930.63;;;5.07;100.00
10946;BME280;5525;42.648;23.368;2023-03-02T05:21:15;94937.00;;;5.11;100.00
10946;BME280;5525;42.648;23.368;2023-03-02T05:23:42;94935.88;;;5.17;100.00
10946;BME280;5525;42.648;23.368;2023-03-02T05:26:09;94939.34;;;5.17;100.00
10946;BME280;5525;42.648;23.368;2023-03-02T05:28:36;94945.97;;;5.25;100.00
10946;BME280;5525;42.648;23.368;2023-03-02T05:31:05;94945.91;;;5.30;100.00
10946;BME280;5525;42.648;23.368;2023-03-02T05:33:32;94947.69;;;5.40;100.00
10946;BME280;5525;42.648;23.368;2023-03-02T05:35:59;94943.34;;;5.44;100.00
10946;BME280;5525;42.648;23.368;2023-03-02T05:38:26;94949.41;;;5.54;100.00
10946;BME280;5525;42.648;23.368;2023-03-02T05:40:56;94949.88;;;5.61;100.00
10946;BME280;5525;42.648;23.368;2023-03-02T05:43:22;94949.22;;;5.69;100.00
10946;BME280;5525;42.648;23.368;2023-03-02T05:45:49;94951.75;;;5.84;100.00
10946;BME280;5525;42.648;23.368;2023-03-02T05:48:17;94957.88;;;5.85;100.00
10946;BME280;5525;42.648;23.368;2023-03-02T05:50:44;94948.59;;;5.77;100.00
10946;BME280;5525;42.648;23.368;2023-03-02T05:53:10;94949.09;;;5.79;100.00
10946;BME280;5525;42.648;23.368;2023-03-02T05:55:37;94956.84;;;5.81;100.00
10946;BME280;5525;42.648;23.368;2023-03-02T05:58:05;94957.59;;;5.86;100.00
10946;BME280;5525;42.648;23.368;2023-03-02T06:00:33;94953.91;;;5.82;100.00
10946;BME280;5525;42.648;23.368;2023-03-02T06:03:00;94954.34;;;5.89;100.00
10946;BME280;5525;42.648;23.368;2023-03-02T06:05:28;94962.03;;;5.96;100.00
10946;BME280;5525;42.648;23.368;2023-03-02T06:07:55;94964.03;;;6.09;100.00
10946;BME280;5525;42.648;23.368;2023-03-02T06:10:22;94966.63;;;6.14;100.00
10946;BME280;5525;42.648;23.368;2023-03-02T06:12:49;94972.50;;;6.16;100.00
10946;BME280;5525;42.648;23.368;2023-03-02T06:15:16;94968.72;;;6.17;100.00
10946;BME280;5525;42.648;23.368;2023-03-02T06:17:43;94969.47;;;6.22;100.00
10946;BME280;5525;42.648;23.368;2023-03-02T06:20:10;94969.47;;;6.22;100.00
10946;BME280;5525;42.648;23.368;2023-03-02T06:22:41;94964.69;;;6.38;100.00
10946;BME280;5525;42.648;23.368;2023-03-02T06:25:11;94972.28;;;6.49;100.00
10946;BME280;5525;42.648;23.368;2023-03-02T06:27:39;94974.28;;;6.44;100.00
10946;BME280;5525;42.648;23.368;2023-03-02T06:30:07;94968.38;;;6.42;100.00
10946;BME280;5525;42.648;23.368;2023-03-02T06:32:34;94982.09;;;6.59;100.00
10946;BME280;5525;42.648;23.368;2023-03-02T06:35:03;94986.13;;;6.75;100.00
10946;BME280;5525;42.648;23.368;2023-03-02T06:37:30;94987.84;;;6.84;100.00
10946;BME280;5525;42.648;23.368;2023-03-02T06:39:58;94972.31;;;7.00;100.00
10946;BME280;5525;42.648;23.368;2023-03-02T06:42:26;94973.22;;;7.09;100.00
10946;BME280;5525;42.648;23.368;2023-03-02T06:44:53;94976.38;;;7.30;100.00
10946;BME280;5525;42.648;23.368;2023-03-02T06:47:20;94969.59;;;7.32;100.00
10946;BME280;5525;42.648;23.368;2023-03-02T06:49:47;94986.69;;;7.23;100.00
10946;BME280;5525;42.648;23.368;2023-03-02T06:52:14;94983.66;;;7.11;100.00
10946;BME280;5525;42.648;23.368;2023-03-02T06:54:41;94975.56;;;6.97;100.00
10946;BME280;5525;42.648;23.368;2023-03-02T06:57:09;94979.91;;;6.79;100.00
10946;BME280;5525;42.648;23.368;2023-03-02T06:59:35;94984.56;;;7.06;100.00
10946;BME280;5525;42.648;23.368;2023-03-02T07:02:02;94985.28;;;7.12;100.00
10946;BME280;5525;42.648;23.368;2023-03-02T07:04:29;94980.97;;;7.11;100.00
10946;BME280;5525;42.648;23.368;2023-03-02T07:06:56;94978.81;;;7.13;100.00
10946;BME280;5525;42.648;23.368;2023-03-02T07:09:23;94971.34;;;7.10;100.00
10946;BME280;5525;42.648;23.368;2023-03-02T07:11:49;94985.00;;;7.13;100.00
10946;BME280;5525;42.648;23.368;2023-03-02T07:14:18;94986.56;;;7.14;100.00
10946;BME280;5525;42.648;23.368;2023-03-02T07:16:44;94984.56;;;7.06;100.00
10946;BME280;5525;42.648;23.368;2023-03-02T07:19:12;94985.81;;;6.95;100.00
10946;BME280;5525;42.648;23.368;2023-03-02T07:21:38;94976.25;;;6.89;100.00
10946;BME280;5525;42.648;23.368;2023-03-02T07:24:06;94986.97;;;6.89;100.00
10946;BME280;5525;42.648;23.368;2023-03-02T07:26:33;94975.56;;;6.97;100.00
10946;BME280;5525;42.648;23.368;2023-03-02T07:28:59;94982.75;;;7.02;100.00
10946;BME280;5525;42.648;23.368;2023-03-02T07:31:28;94975.31;;;7.12;100.00
10946;BME280;5525;42.648;23.368;2023-03-02T07:33:54;94989.97;;;7.20;100.00
10946;BME280;5525;42.648;23.368;2023-03-02T07:36:21;94983.13;;;7.27;100.00
10946;BME280;5525;42.648;23.368;2023-03-02T07:38:48;94979.34;;;7.28;100.00
10946;BME280;5525;42.648;23.368;2023-03-02T07:41:14;94982.34;;;7.27;100.00
10946;BME280;5525;42.648;23.368;2023-03-02T07:43:42;94982.09;;;7.10;100.00
10946;BME280;5525;42.648;23.368;2023-03-02T07:46:08;94986.25;;;7.02;100.00
10946;BME280;5525;42.648;23.368;2023-03-02T07:48:36;94982.97;;;7.05;100.00
10946;BME280;5525;42.648;23.368;2023-03-02T07:51:04;94993.56;;;6.97;100.00
10946;BME280;5525;42.648;23.368;2023-03-02T07:53:32;94983.41;;;6.93;100.00
10946;BME280;5525;42.648;23.368;2023-03-02T07:55:58;94986.69;;;6.90;100.00
10946;BME280;5525;42.648;23.368;2023-03-02T07:58:26;94988.28;;;6.92;100.00
10946;BME280;5525;42.648;23.368;2023-03-02T08:00:53;94981.16;;;7.01;100.00
10946;BME280;5525;42.648;23.368;2023-03-02T08:03:20;94978.03;;;6.93;100.00
10946;BME280;5525;42.648;23.368;2023-03-02T08:05:48;94979.78;;;7.03;100.00
10946;BME280;5525;42.648;23.368;2023-03-02T08:08:15;94981.19;;;7.14;100.00
10946;BME280;5525;42.648;23.368;2023-03-02T08:10:41;94977.00;;;7.08;100.00
10946;BME280;5525;42.648;23.368;2023-03-02T08:13:08;94978.72;;;7.18;100.00
10946;BME280;5525;42.648;23.368;2023-03-02T08:15:35;94971.16;;;7.20;100.00
10946;BME280;5525;42.648;23.368;2023-03-02T08:18:02;94966.91;;;7.32;100.00
10946;BME280;5525;42.648;23.368;2023-03-02T08:20:29;94978.38;;;7.38;100.00
10946;BME280;5525;42.648;23.368;2023-03-02T08:22:57;94976.38;;;7.30;100.00
10946;BME280;5525;42.648;23.368;2023-03-02T08:25:24;94975.28;;;7.44;100.00
10946;BME280;5525;42.648;23.368;2023-03-02T08:27:50;94974.22;;;7.45;100.00
10946;BME280;5525;42.648;23.368;2023-03-02T08:30:18;94973.41;;;7.45;100.00
10946;BME280;5525;42.648;23.368;2023-03-02T08:32:44;94974.91;;;7.51;100.00
10946;BME280;5525;42.648;23.368;2023-03-02T08:35:11;94976.31;;;7.48;100.00
10946;BME280;5525;42.648;23.368;2023-03-02T08:37:38;94960.41;;;7.65;100.00
10946;BME280;5525;42.648;23.368;2023-03-02T08:40:07;94970.56;;;7.55;100.00
10946;BME280;5525;42.648;23.368;2023-03-02T08:42:34;94968.75;;;7.64;100.00
10946;BME280;5525;42.648;23.368;2023-03-02T08:45:01;94966.16;;;7.72;100.00
10946;BME280;5525;42.648;23.368;2023-03-02T08:47:28;94960.47;;;7.87;100.00
10946;BME280;5525;42.648;23.368;2023-03-02T08:49:54;94963.59;;;7.81;100.00
10946;BME280;5525;42.648;23.368;2023-03-02T08:52:21;94974.13;;;7.91;100.00
10946;BME280;5525;42.648;23.368;2023-03-02T08:54:48;94961.38;;;7.69;100.00
10946;BME280;5525;42.648;23.368;2023-03-02T08:57:16;94952.25;;;7.70;100.00
10946;BME280;5525;42.648;23.368;2023-03-02T08:59:42;94954.13;;;7.70;100.00
10946;BME280;5525;42.648;23.368;2023-03-02T09:02:10;94945.97;;;7.88;100.00
10946;BME280;5525;42.648;23.368;2023-03-02T09:04:36;94951.22;;;7.93;100.00
10946;BME280;5525;42.648;23.368;2023-03-02T09:07:03;94959.28;;;7.93;100.00
10946;BME280;5525;42.648;23.368;2023-03-02T09:09:30;94948.75;;;7.83;100.00
10946;BME280;5525;42.648;23.368;2023-03-02T09:11:57;94941.69;;;7.74;100.00
10946;BME280;5525;42.648;23.368;2023-03-02T09:14:25;94948.25;;;7.81;100.00
10946;BME280;5525;42.648;23.368;2023-03-02T09:16:52;94951.94;;;7.85;100.00
10946;BME280;5525;42.648;23.368;2023-03-02T09:19:19;94950.13;;;8.08;100.00
10946;BME280;5525;42.648;23.368;2023-03-02T09:21:46;94951.22;;;7.80;100.00
10946;BME280;5525;42.648;23.368;2023-03-02T09:24:12;94949.25;;;7.72;100.00
10946;BME280;5525;42.648;23.368;2023-03-02T09:26:39;94951.16;;;7.58;100.00
10946;BME280;5525;42.648;23.368;2023-03-02T09:29:06;94961.47;;;7.64;100.00
10946;BME280;5525;42.648;23.368;2023-03-02T09:31:35;94949.84;;;7.96;100.00
10946;BME280;5525;42.648;23.368;2023-03-02T09:34:02;94949.84;;;7.96;100.00
10946;BME280;5525;42.648;23.368;2023-03-02T09:36:29;94941.47;;;7.97;100.00
10946;BME280;5525;42.648;23.368;2023-03-02T09:38:57;94948.63;;;8.02;100.00
10946;BME280;5525;42.648;23.368;2023-03-02T09:41:37;94945.84;;;8.07;100.00
10946;BME280;5525;42.648;23.368;2023-03-02T09:44:16;94929.13;;;7.96;100.00
10946;BME280;5525;42.648;23.368;2023-03-02T09:46:49;94939.25;;;8.13;100.00
10946;BME280;5525;42.648;23.368;2023-03-02T09:49:24;94940.94;;;8.36;100.00
10946;BME280;5525;42.648;23.368;2023-03-02T09:52:02;94937.72;;;8.47;100.00
10946;BME280;5525;42.648;23.368;2023-03-02T09:54:31;94940.63;;;8.73;100.00
10946;BME280;5525;42.648;23.368;2023-03-02T09:56:58;94940.75;;;8.68;100.00
10946;BME280;5525;42.648;23.368;2023-03-02T09:59:27;94934.75;;;8.71;100.00
10946;BME280;5525;42.648;23.368;2023-03-02T10:02:00;94932.09;;;8.80;100.00
10946;BME280;5525;42.648;23.368;2023-03-02T10:04:30;94938.91;;;8.99;100.00
10946;BME280;5525;42.648;23.368;2023-03-02T10:07:04;94929.63;;;9.36;100.00
10946;BME280;5525;42.648;23.368;2023-03-02T10:09:36;94920.38;;;9.59;100.00
10946;BME280;5525;42.648;23.368;2023-03-02T10:12:22;94936.31;;;9.77;100.00
10946;BME280;5525;42.648;23.368;2023-03-02T10:14:59;94940.41;;;9.75;100.00
10946;BME280;5525;42.648;23.368;2023-03-02T10:17:39;94934.53;;;10.12;100.00
10946;BME280;5525;42.648;23.368;2023-03-02T10:20:14;94936.69;;;9.93;100.00
10946;BME280;5525;42.648;23.368;2023-03-02T10:22:45;94931.88;;;9.81;100.00
10946;BME280;5525;42.648;23.368;2023-03-02T10:25:23;94930.75;;;9.35;100.00
10946;BME280;5525;42.648;23.368;2023-03-02T10:27:57;94934.81;;;9.02;100.00
10946;BME280;5525;42.648;23.368;2023-03-02T10:30:29;94940.75;;;8.90;100.00
10946;BME280;5525;42.648;23.368;2023-03-02T10:33:01;94937.78;;;8.56;100.00
10946;BME280;5525;42.648;23.368;2023-03-02T10:35:30;94923.69;;;8.37;100.00
10946;BME280;5525;42.648;23.368;2023-03-02T10:37:59;94928.72;;;8.30;100.00
10946;BME280;5525;42.648;23.368;2023-03-02T10:40:38;94927.69;;;8.12;100.00
10946;BME280;5525;42.648;23.368;2023-03-02T10:43:13;94915.22;;;8.16;100.00
10946;BME280;5525;42.648;23.368;2023-03-02T10:45:41;94917.53;;;8.23;100.00
10946;BME280;5525;42.648;23.368;2023-03-02T10:48:11;94927.22;;;8.24;100.00
10946;BME280;5525;42.648;23.368;2023-03-02T10:50:38;94916.13;;;8.39;100.00
10946;BME280;5525;42.648;23.368;2023-03-02T10:53:06;94914.38;;;8.79;100.00
10946;BME280;5525;42.648;23.368;2023-03-02T10:55:33;94916.69;;;8.94;100.00
10946;BME280;5525;42.648;23.368;2023-03-02T10:58:02;94914.53;;;9.04;100.00
10946;BME280;5525;42.648;23.368;2023-03-02T11:00:31;94911.50;;;9.28;100.00
10946;BME280;5525;42.648;23.368;2023-03-02T11:03:00;94910.44;;;9.37;100.00
10946;BME280;5525;42.648;23.368;2023-03-02T11:05:31;94914.53;;;9.65;100.00
10946;BME280;5525;42.648;23.368;2023-03-02T11:08:00;94901.94;;;9.52;100.00
10946;BME280;5525;42.648;23.368;2023-03-02T11:10:29;94898.59;;;9.47;100.00
10946;BME280;5525;42.648;23.368;2023-03-02T11:12:57;94902.69;;;9.44;100.00
10946;BME280;5525;42.648;23.368;2023-03-02T11:15:27;94881.97;;;9.14;100.00
10946;BME280;5525;42.648;23.368;2023-03-02T11:18:00;94883.91;;;9.22;100.00
10946;BME280;5525;42.648;23.368;2023-03-02T11:20:33;94897.91;;;9.33;100.00
10946;BME280;5525;42.648;23.368;2023-03-02T11:23:09;94871.13;;;9.06;100.00
10946;BME280;5525;42.648;23.368;2023-03-02T11:25:43;94889.63;;;9.21;100.00
10946;BME280;5525;42.648;23.368;2023-03-02T11:28:23;94882.56;;;9.42;100.00
10946;BME280;5525;42.648;23.368;2023-03-02T11:30:55;94880.38;;;9.44;100.00
10946;BME280;5525;42.648;23.368;2023-03-02T11:33:25;94883.84;;;9.14;100.00
10946;BME280;5525;42.648;23.368;2023-03-02T11:35:58;94882.91;;;9.18;100.00
10946;BME280;5525;42.648;23.368;2023-03-02T11:38:32;94882.06;;;9.31;100.00
10946;BME280;5525;42.648;23.368;2023-03-02T11:41:04;94866.31;;;9.25;100.00
10946;BME280;5525;42.648;23.368;2023-03-02T11:43:37;94870.84;;;9.46;100.00
10946;BME280;5525;42.648;23.368;2023-03-02T11:46:06;94865.44;;;9.38;100.00
10946;BME280;5525;42.648;23.368;2023-03-02T11:48:36;94870.56;;;9.56;100.00
10946;BME280;5525;42.648;23.368;2023-03-02T11:51:11;94867.72;;;9.53;100.00
10946;BME280;5525;42.648;23.368;2023-03-02T11:53:42;94868.84;;;9.60;100.00
10946;BME280;5525;42.648;23.368;2023-03-02T11:56:11;94869.91;;;9.42;100.00
10946;BME280;5525;42.648;23.368;2023-03-02T11:58:38;94872.50;;;9.25;100.00
10946;BME280;5525;42.648;23.368;2023-03-02T12:01:11;94871.81;;;9.11;100.00
10946;BME280;5525;42.648;23.368;2023-03-02T12:03:42;94872.72;;;9.07;100.00
10946;BME280;5525;42.648;23.368;2023-03-02T12:06:27;94872.25;;;8.83;100.00
10946;BME280;5525;42.648;23.368;2023-03-02T12:09:08;94877.38;;;8.62;100.00
10946;BME280;5525;42.648;23.368;2023-03-02T12:11:37;94877.38;;;8.62;100.00
10946;BME280;5525;42.648;23.368;2023-03-02T12:14:22;94881.44;;;8.59;100.00
10946;BME280;5525;42.648;23.368;2023-03-02T12:16:51;94876.13;;;8.46;100.00
10946;BME280;5525;42.648;23.368;2023-03-02T12:19:25;94870.69;;;8.37;100.00
10946;BME280;5525;42.648;23.368;2023-03-02T12:21:58;94876.06;;;8.37;100.00
10946;BME280;5525;42.648;23.368;2023-03-02T12:24:28;94866.16;;;8.46;100.00
10946;BME280;5525;42.648;23.368;2023-03-02T12:27:03;94873.50;;;8.54;100.00
10946;BME280;5525;42.648;23.368;2023-03-02T12:29:41;94864.53;;;8.59;100.00
10946;BME280;5525;42.648;23.368;2023-03-02T12:32:12;94868.06;;;8.68;100.00
10946;BME280;5525;42.648;23.368;2023-03-02T12:34:42;94854.28;;;8.92;100.00
10946;BME280;5525;42.648;23.368;2023-03-02T12:37:17;94868.22;;;9.24;100.00
10946;BME280;5525;42.648;23.368;2023-03-02T12:40:10;94857.31;;;9.29;100.00
10946;BME280;5525;42.648;23.368;2023-03-02T12:42:49;94857.78;;;9.31;100.00
10946;BME280;5525;42.648;23.368;2023-03-02T12:45:26;94863.06;;;9.36;100.00
10946;BME280;5525;42.648;23.368;2023-03-02T12:48:01;94871.16;;;9.45;100.00
10946;BME280;5525;42.648;23.368;2023-03-02T12:50:31;94872.09;;;9.40;100.00
10946;BME280;5525;42.648;23.368;2023-03-02T12:53:01;94870.66;;;9.82;100.00
10946;BME280;5525;42.648;23.368;2023-03-02T12:55:29;94866.00;;;10.30;100.00
10946;BME280;5525;42.648;23.368;2023-03-02T12:57:58;94860.91;;;10.63;100.00
10946;BME280;5525;42.648;23.368;2023-03-02T13:00:29;94856.47;;;10.41;100.00
10946;BME280;5525;42.648;23.368;2023-03-02T13:02:57;94851.56;;;10.35;100.00
10946;BME280;5525;42.648;23.368;2023-03-02T13:05:28;94851.94;;;10.02;100.00
10946;BME280;5525;42.648;23.368;2023-03-02T13:07:57;94853.75;;;10.07;100.00
10946;BME280;5525;42.648;23.368;2023-03-02T13:10:29;94847.91;;;9.66;100.00